Time;durP1;ratioP1;P1;durP2;ratioP2;P2;SDS_P1;SDS_P2;PMS_P1;PMS_P2;Temp;Humidity;BMP_temperature;BMP_pressure;BME280_temperature;BME280_humidity;BME280_pressure;Samples;Min_cycle;Max_cycle;Signal;HPM_P1;HPM_P2
2022/04/13 00:02:04;;;;;;;13.80;8.38;;;10.80;96.00;;;;;;5044322;28;20382;-77
2022/04/13 00:04:30;;;;;;;15.88;8.77;;;10.80;96.00;;;;;;5049939;28;20067;-76
2022/04/13 00:06:57;;;;;;;14.95;8.38;;;10.80;95.90;;;;;;5048413;28;20129;-77
2022/04/13 00:09:23;;;;;;;12.95;8.50;;;10.80;96.10;;;;;;5049934;28;20077;-77
2022/04/13 00:11:50;;;;;;;14.75;8.73;;;10.80;96.00;;;;;;5050997;28;20037;-77
2022/04/13 00:14:16;;;;;;;15.10;8.35;;;10.60;96.00;;;;;;5041628;28;20044;-77
2022/04/13 00:16:42;;;;;;;14.50;7.88;;;10.70;96.10;;;;;;5036560;28;20626;-77
2022/04/13 00:19:08;;;;;;;15.27;9.20;;;10.60;96.10;;;;;;5052811;28;20044;-76
2022/04/13 00:21:33;;;;;;;16.77;8.13;;;10.60;96.30;;;;;;5049193;28;20029;-76
2022/04/13 00:23:59;;;;;;;15.88;9.38;;;10.60;96.20;;;;;;5047677;28;20115;-77
2022/04/13 00:26:25;;;;;;;14.50;8.43;;;10.60;96.30;;;;;;5050997;28;20036;-76
2022/04/13 00:28:50;;;;;;;19.65;8.48;;;10.50;96.50;;;;;;5047108;28;20039;-77
2022/04/13 00:31:16;;;;;;;13.57;8.73;;;10.40;96.60;;;;;;5051763;28;20119;-77
2022/04/13 00:33:42;;;;;;;18.55;9.20;;;10.40;96.80;;;;;;5046682;28;20396;-77
2022/04/13 00:36:07;;;;;;;15.20;8.65;;;10.50;96.80;;;;;;5050017;28;20056;-77
2022/04/13 00:38:33;;;;;;;16.38;8.68;;;10.40;96.90;;;;;;5046000;28;20038;-77
2022/04/13 00:40:59;;;;;;;13.10;8.75;;;10.50;97.00;;;;;;5052706;28;20072;-77
2022/04/13 00:43:25;;;;;;;13.95;9.23;;;10.40;97.00;;;;;;5048659;28;20025;-77
2022/04/13 00:45:51;;;;;;;21.30;10.73;;;10.40;97.00;;;;;;5050930;28;20060;-76
2022/04/13 00:48:31;;;;;;;16.98;9.43;;;10.40;97.00;;;;;;5053119;28;20055;-77
2022/04/13 00:50:57;;;;;;;16.42;9.45;;;10.40;96.90;;;;;;5047838;28;20060;-77
2022/04/13 00:53:24;;;;;;;15.75;8.48;;;10.40;97.10;;;;;;5045470;28;20045;-77
2022/04/13 00:55:54;;;;;;;13.07;8.35;;;10.40;97.00;;;;;;5045575;28;20066;-76
2022/04/13 00:58:22;;;;;;;16.17;9.10;;;10.40;96.90;;;;;;5046880;28;20075;-76
2022/04/13 01:00:49;;;;;;;14.68;9.00;;;10.60;96.70;;;;;;5051829;28;20115;-77
2022/04/13 01:03:20;;;;;;;14.70;9.85;;;10.50;96.90;;;;;;5048370;28;20044;-77
2022/04/13 01:05:47;;;;;;;18.63;9.48;;;10.60;96.80;;;;;;5044892;28;20045;-77
2022/04/13 01:08:15;;;;;;;14.77;8.80;;;10.50;96.80;;;;;;5047867;28;20750;-77
2022/04/13 01:10:42;;;;;;;16.25;9.02;;;10.50;96.80;;;;;;5047437;28;20556;-77
2022/04/13 01:13:08;;;;;;;13.98;8.80;;;10.50;96.90;;;;;;5043738;28;20151;-77
2022/04/13 01:15:34;;;;;;;22.23;10.00;;;10.40;96.90;;;;;;5039150;28;20037;-77
2022/04/13 01:18:01;;;;;;;15.93;9.55;;;10.60;97.20;;;;;;5050237;28;20032;-76
2022/04/13 01:20:26;;;;;;;16.75;9.45;;;10.80;97.00;;;;;;5048860;28;20394;-76
2022/04/13 01:22:52;;;;;;;17.27;10.30;;;10.80;96.80;;;;;;5050289;28;20051;-77
2022/04/13 01:25:18;;;;;;;14.05;8.85;;;10.60;96.90;;;;;;5044111;28;20029;-77
2022/04/13 01:27:43;;;;;;;16.35;10.27;;;10.40;97.20;;;;;;5050430;28;20091;-76
2022/04/13 01:30:11;;;;;;;17.25;9.85;;;10.40;97.30;;;;;;5051216;28;20029;-76
2022/04/13 01:32:37;;;;;;;13.80;9.05;;;10.40;97.30;;;;;;5045254;28;20041;-76
2022/04/13 01:35:03;;;;;;;13.10;8.98;;;10.40;97.40;;;;;;5049065;28;20051;-76
2022/04/13 01:37:28;;;;;;;14.32;10.48;;;10.40;97.40;;;;;;5051563;28;20085;-77
2022/04/13 01:39:54;;;;;;;15.38;8.80;;;10.50;97.30;;;;;;5049966;28;20028;-77
2022/04/13 01:42:20;;;;;;;16.00;9.30;;;10.60;97.20;;;;;;5036266;28;20036;-76
2022/04/13 01:44:47;;;;;;;16.25;9.50;;;10.40;97.30;;;;;;5050299;28;20422;-76
2022/04/13 01:47:13;;;;;;;15.02;9.07;;;10.50;97.50;;;;;;5049709;28;20399;-76
2022/04/13 01:49:39;;;;;;;16.98;9.70;;;10.30;97.30;;;;;;5044631;28;20079;-77
2022/04/13 01:52:06;;;;;;;23.17;11.00;;;10.20;97.50;;;;;;5041011;28;20467;-76
2022/04/13 01:54:32;;;;;;;17.17;10.45;;;10.60;97.10;;;;;;5050304;28;20451;-76
2022/04/13 01:56:58;;;;;;;14.52;8.40;;;10.60;96.90;;;;;;5049511;28;20037;-77
2022/04/13 01:59:24;;;;;;;15.40;9.27;;;10.50;96.50;;;;;;5039499;28;20043;-77
2022/04/13 02:01:50;;;;;;;17.98;9.48;;;10.60;96.30;;;;;;5048139;28;20024;-77
2022/04/13 02:04:23;;;;;;;16.27;10.10;;;10.50;96.90;;;;;;5041905;28;20411;-77
2022/04/13 02:06:49;;;;;;;17.17;9.57;;;10.30;97.40;;;;;;5050098;28;20060;-77
2022/04/13 02:09:17;;;;;;;19.23;9.52;;;10.10;97.60;;;;;;5044965;28;20034;-77
2022/04/13 02:11:44;;;;;;;15.38;8.95;;;10.10;97.50;;;;;;5044694;28;20376;-77
2022/04/13 02:14:10;;;;;;;13.75;9.38;;;10.00;97.90;;;;;;5048896;28;20389;-77
2022/04/13 02:16:36;;;;;;;18.73;8.80;;;9.90;97.70;;;;;;5046052;28;20100;-77
2022/04/13 02:19:02;;;;;;;16.38;9.52;;;9.80;97.70;;;;;;5048875;28;20128;-77
2022/04/13 02:21:28;;;;;;;14.85;8.50;;;9.80;97.70;;;;;;5048360;28;20028;-76
2022/04/13 02:23:54;;;;;;;16.08;8.95;;;9.70;97.70;;;;;;5046286;28;20527;-77
2022/04/13 02:26:19;;;;;;;15.75;8.77;;;9.60;97.80;;;;;;5049610;28;20112;-76
2022/04/13 02:28:46;;;;;;;16.35;9.32;;;9.50;97.80;;;;;;5049173;28;20034;-77
2022/04/13 02:31:12;;;;;;;18.52;9.38;;;9.60;97.90;;;;;;5038048;28;20069;-76
2022/04/13 02:33:37;;;;;;;19.00;9.63;;;9.60;98.00;;;;;;5041605;28;20064;-77
2022/04/13 02:36:03;;;;;;;16.40;9.18;;;9.50;98.10;;;;;;5051042;28;20489;-76
2022/04/13 02:38:29;;;;;;;19.50;9.18;;;9.40;98.00;;;;;;5047669;28;20075;-77
2022/04/13 02:40:55;;;;;;;14.57;8.48;;;9.20;98.10;;;;;;5047117;28;20472;-76
2022/04/13 02:43:20;;;;;;;20.85;10.45;;;9.10;98.10;;;;;;5049658;28;20072;-76
2022/04/13 02:45:46;;;;;;;16.73;9.82;;;9.30;98.20;;;;;;5048544;28;20049;-76
2022/04/13 02:48:12;;;;;;;16.80;9.68;;;9.60;98.10;;;;;;5044882;28;20076;-77
2022/04/13 02:50:38;;;;;;;18.30;8.93;;;9.40;97.80;;;;;;5041537;28;20025;-76
2022/04/13 02:53:04;;;;;;;15.25;9.75;;;9.20;98.10;;;;;;5044822;28;20051;-76
2022/04/13 02:55:30;;;;;;;14.52;9.10;;;9.40;98.00;;;;;;5046009;28;20033;-76
2022/04/13 02:57:56;;;;;;;14.25;9.57;;;9.30;97.90;;;;;;5048067;28;20455;-76
2022/04/13 03:00:22;;;;;;;17.60;10.43;;;9.30;98.10;;;;;;5047426;28;20116;-75
2022/04/13 03:02:48;;;;;;;17.70;10.40;;;9.30;98.20;;;;;;5041964;28;20078;-75
2022/04/13 03:05:13;;;;;;;18.77;8.85;;;9.10;98.30;;;;;;5038601;28;20068;-75
2022/04/13 03:07:39;;;;;;;19.67;11.10;;;9.00;98.60;;;;;;5026532;28;20555;-75
2022/04/13 03:10:05;;;;;;;15.25;8.80;;;9.10;98.40;;;;;;5025989;28;20048;-76
2022/04/13 03:12:33;;;;;;;16.42;9.57;;;9.10;98.60;;;;;;5018698;28;20084;-75
2022/04/13 03:15:01;;;;;;;16.70;9.35;;;9.10;98.50;;;;;;5025106;28;20037;-75
2022/04/13 03:17:27;;;;;;;19.27;10.27;;;9.10;98.30;;;;;;5018272;28;20026;-75
2022/04/13 03:19:52;;;;;;;17.45;9.63;;;9.00;98.40;;;;;;5017973;28;21101;-75
2022/04/13 03:22:22;;;;;;;17.55;9.20;;;8.90;98.20;;;;;;5034825;28;20041;-75
2022/04/13 03:24:48;;;;;;;19.92;10.25;;;8.90;98.30;;;;;;5035596;28;20037;-76
2022/04/13 03:27:13;;;;;;;18.08;9.02;;;9.00;98.20;;;;;;5049363;28;20418;-76
2022/04/13 03:29:39;;;;;;;17.80;9.73;;;9.20;98.00;;;;;;5048013;28;20471;-76
2022/04/13 03:32:05;;;;;;;16.33;9.93;;;9.00;98.20;;;;;;5047674;28;20865;-76
2022/04/13 03:34:31;;;;;;;14.82;9.13;;;9.10;98.60;;;;;;5048770;28;20025;-76
2022/04/13 03:36:57;;;;;;;17.63;9.85;;;9.00;98.50;;;;;;5049856;28;20115;-76
2022/04/13 03:39:23;;;;;;;16.65;9.43;;;9.00;98.90;;;;;;5036665;28;20081;-76
2022/04/13 03:41:49;;;;;;;16.80;10.98;;;9.00;99.00;;;;;;5044064;28;20025;-76
2022/04/13 03:44:15;;;;;;;18.33;11.30;;;9.00;99.20;;;;;;5022437;28;20120;-76
2022/04/13 03:46:40;;;;;;;18.20;10.50;;;9.10;99.00;;;;;;5026381;28;20021;-76
2022/04/13 03:49:09;;;;;;;16.90;10.27;;;9.00;99.00;;;;;;5036167;28;20094;-76
2022/04/13 03:51:35;;;;;;;18.95;9.95;;;8.90;99.10;;;;;;5024720;28;20033;-76
2022/04/13 03:54:01;;;;;;;23.77;11.50;;;8.80;99.10;;;;;;5027128;28;20665;-76
2022/04/13 03:56:28;;;;;;;16.65;10.93;;;8.90;99.30;;;;;;5030324;28;20108;-76
2022/04/13 03:58:54;;;;;;;20.17;11.40;;;8.80;99.30;;;;;;5019201;28;20130;-76
2022/04/13 04:01:20;;;;;;;20.52;12.60;;;8.90;99.40;;;;;;5028694;28;20124;-76
2022/04/13 04:03:45;;;;;;;21.85;10.95;;;8.80;99.40;;;;;;5039871;28;20029;-76
2022/04/13 04:06:11;;;;;;;17.17;10.65;;;8.90;99.40;;;;;;5041974;28;20642;-76
2022/04/13 04:08:36;;;;;;;18.52;9.52;;;8.80;99.40;;;;;;5039573;28;20111;-76
2022/04/13 04:11:02;;;;;;;18.02;10.82;;;8.80;99.70;;;;;;5044679;28;20040;-76
2022/04/13 04:13:28;;;;;;;14.95;9.45;;;8.90;99.50;;;;;;5043734;28;20123;-76
2022/04/13 04:15:53;;;;;;;16.58;10.52;;;8.80;99.40;;;;;;5036115;28;20099;-76
2022/04/13 04:18:19;;;;;;;26.92;10.85;;;8.70;99.40;;;;;;5045207;28;20040;-76
2022/04/13 04:20:44;;;;;;;19.98;10.90;;;8.40;99.80;;;;;;5041561;28;20025;-76
2022/04/13 04:23:10;;;;;;;17.67;10.20;;;8.60;99.70;;;;;;5044707;28;20031;-76
2022/04/13 04:25:36;;;;;;;17.75;10.35;;;8.70;99.50;;;;;;5040424;28;20625;-77
2022/04/13 04:28:03;;;;;;;17.15;9.32;;;8.80;99.20;;;;;;5036952;28;20057;-76
2022/04/13 04:30:31;;;;;;;18.38;9.93;;;8.80;99.20;;;;;;5037931;28;20807;-76
2022/04/13 04:32:57;;;;;;;18.33;10.77;;;8.70;99.20;;;;;;5037144;28;20045;-76
2022/04/13 04:35:23;;;;;;;17.88;10.80;;;8.70;99.20;;;;;;5043521;28;20154;-76
2022/04/13 04:37:49;;;;;;;19.52;11.27;;;8.70;99.30;;;;;;5044723;28;20025;-76
2022/04/13 04:40:14;;;;;;;22.02;10.43;;;8.70;99.30;;;;;;5044105;28;20508;-76
2022/04/13 04:42:45;;;;;;;22.25;10.90;;;8.70;99.20;;;;;;5044952;28;20029;-76
2022/04/13 04:45:12;;;;;;;19.73;10.25;;;8.60;99.30;;;;;;5040551;28;20033;-75
2022/04/13 04:47:38;;;;;;;19.73;10.73;;;8.60;99.20;;;;;;5044388;28;20029;-76
2022/04/13 04:50:04;;;;;;;19.00;12.15;;;8.70;99.20;;;;;;5034673;28;20029;-76
2022/04/13 04:52:29;;;;;;;18.73;10.93;;;8.90;99.00;;;;;;5045243;28;20873;-76
2022/04/13 04:54:55;;;;;;;32.40;11.02;;;8.60;99.30;;;;;;5042746;28;20029;-76
2022/04/13 04:57:21;;;;;;;16.10;9.77;;;8.60;99.30;;;;;;5044102;28;20033;-76
2022/04/13 04:59:47;;;;;;;18.52;10.27;;;8.50;99.40;;;;;;5037601;28;20034;-76
2022/04/13 05:02:12;;;;;;;22.45;10.68;;;8.60;99.50;;;;;;5043348;28;20467;-76
2022/04/13 05:04:38;;;;;;;18.55;10.82;;;8.60;99.50;;;;;;5041508;28;20045;-76
2022/04/13 05:07:04;;;;;;;19.17;10.63;;;8.70;99.40;;;;;;5040780;28;20045;-76
2022/04/13 05:09:29;;;;;;;19.42;10.07;;;8.80;99.00;;;;;;5042845;28;20383;-76
2022/04/13 05:11:55;;;;;;;20.13;11.27;;;8.80;99.10;;;;;;5044599;28;20059;-76
2022/04/13 05:14:21;;;;;;;17.00;9.93;;;8.80;99.20;;;;;;5041487;28;20044;-76
2022/04/13 05:16:46;;;;;;;21.15;10.63;;;8.80;99.10;;;;;;5039828;28;20033;-76
2022/04/13 05:19:15;;;;;;;16.52;9.95;;;9.00;99.00;;;;;;5024877;28;20031;-76
2022/04/13 05:21:41;;;;;;;16.60;9.00;;;9.00;99.00;;;;;;5020163;28;20065;-76
2022/04/13 05:24:07;;;;;;;18.98;9.85;;;9.10;98.80;;;;;;5022685;28;20182;-76
2022/04/13 05:26:32;;;;;;;21.90;8.55;;;9.10;98.80;;;;;;5022805;28;20040;-76
2022/04/13 05:28:58;;;;;;;15.25;7.68;;;9.20;98.60;;;;;;5036643;28;20028;-75
2022/04/13 05:31:24;;;;;;;16.20;9.40;;;9.30;98.80;;;;;;5024840;28;20049;-75
2022/04/13 05:33:49;;;;;;;15.35;9.32;;;9.30;99.00;;;;;;5022487;28;20076;-75
2022/04/13 05:36:15;;;;;;;19.52;9.10;;;9.20;98.80;;;;;;5038018;28;20025;-76
2022/04/13 05:38:40;;;;;;;16.33;9.00;;;9.20;98.50;;;;;;5032517;28;21068;-76
2022/04/13 05:41:06;;;;;;;16.33;8.32;;;9.20;98.70;;;;;;5048006;28;20040;-76
2022/04/13 05:43:34;;;;;;;14.95;8.98;;;9.20;98.50;;;;;;5044652;28;20032;-76
2022/04/13 05:46:00;;;;;;;14.27;8.77;;;9.20;98.80;;;;;;5042073;28;20037;-76
2022/04/13 05:48:26;;;;;;;16.08;9.63;;;9.30;99.10;;;;;;5033952;28;20044;-76
2022/04/13 05:50:52;;;;;;;16.73;9.73;;;9.20;99.20;;;;;;5033551;28;20568;-76
2022/04/13 05:53:18;;;;;;;17.15;9.98;;;9.20;99.20;;;;;;5022316;28;20076;-76
2022/04/13 05:55:44;;;;;;;14.98;8.52;;;9.20;99.30;;;;;;5025307;28;20033;-76
2022/04/13 05:58:10;;;;;;;14.20;8.60;;;9.30;99.20;;;;;;5022789;28;20033;-76
2022/04/13 06:00:39;;;;;;;13.98;8.23;;;9.20;99.20;;;;;;5027322;28;20263;-76
2022/04/13 06:03:05;;;;;;;15.40;9.63;;;9.20;99.40;;;;;;5037546;28;20036;-76
2022/04/13 06:05:31;;;;;;;15.20;8.27;;;9.20;99.30;;;;;;5042763;28;20088;-77
2022/04/13 06:07:56;;;;;;;16.70;9.13;;;9.20;99.20;;;;;;5043793;28;20029;-76
2022/04/13 06:10:22;;;;;;;16.20;7.38;;;9.20;99.50;;;;;;5043511;28;20104;-77
2022/04/13 06:12:51;;;;;;;17.83;9.57;;;9.20;99.60;;;;;;5040744;28;20068;-76
2022/04/13 06:15:16;;;;;;;11.95;7.72;;;9.20;99.50;;;;;;5037888;28;20029;-76
2022/04/13 06:17:42;;;;;;;12.15;8.70;;;9.20;99.60;;;;;;5043815;28;20039;-76
2022/04/13 06:20:08;;;;;;;18.35;8.93;;;9.20;99.90;;;;;;5042809;28;20060;-76
2022/04/13 06:22:39;;;;;;;18.90;9.07;;;9.20;99.90;;;;;;5040921;28;20025;-76
2022/04/13 06:25:05;;;;;;;22.50;11.55;;;9.30;99.90;;;;;;5040743;28;20492;-76
2022/04/13 06:27:31;;;;;;;14.20;9.57;;;9.30;99.80;;;;;;5033061;28;20031;-76
2022/04/13 06:29:56;;;;;;;16.80;9.75;;;9.50;99.60;;;;;;5034679;28;20399;-76
2022/04/13 06:32:30;;;;;;;16.48;7.95;;;9.60;99.80;;;;;;5042293;28;20102;-76
2022/04/13 06:34:59;;;;;;;25.65;9.13;;;9.70;99.90;;;;;;5042046;28;20055;-76
2022/04/13 06:37:25;;;;;;;23.05;9.07;;;9.80;99.90;;;;;;5030013;28;20040;-75
2022/04/13 06:39:50;;;;;;;14.65;8.80;;;9.90;99.60;;;;;;5018901;28;20025;-74
2022/04/13 06:42:16;;;;;;;18.52;8.10;;;10.10;99.50;;;;;;5024743;28;20033;-76
2022/04/13 06:44:42;;;;;;;13.40;8.75;;;10.50;99.10;;;;;;5025989;28;20139;-72
2022/04/13 06:47:07;;;;;;;14.35;8.73;;;11.10;97.50;;;;;;5038031;28;20033;-72
2022/04/13 06:49:33;;;;;;;14.90;8.68;;;12.40;95.90;;;;;;5022628;28;20083;-73
2022/04/13 06:51:58;;;;;;;15.32;8.35;;;13.60;93.60;;;;;;5024874;28;20155;-73
2022/04/13 06:54:24;;;;;;;14.50;8.48;;;14.50;91.90;;;;;;5021533;28;20639;-73
2022/04/13 06:56:50;;;;;;;15.07;8.25;;;16.00;89.20;;;;;;5019209;28;20040;-73
2022/04/13 06:59:15;;;;;;;14.02;7.78;;;16.40;87.50;;;;;;5037056;28;20064;-73
2022/04/13 07:01:41;;;;;;;12.43;7.82;;;16.90;86.30;;;;;;5035278;28;20751;-73
2022/04/13 07:04:07;;;;;;;13.20;7.50;;;17.00;84.70;;;;;;5038315;28;20071;-73
2022/04/13 07:06:32;;;;;;;19.90;7.93;;;17.70;83.30;;;;;;5038762;28;20059;-73
2022/04/13 07:08:58;;;;;;;11.73;7.38;;;18.30;81.40;;;;;;5043328;28;20040;-73
2022/04/13 07:11:24;;;;;;;14.73;7.20;;;18.40;81.20;;;;;;5043399;28;20036;-73
2022/04/13 07:13:49;;;;;;;13.25;7.35;;;17.90;81.60;;;;;;5042996;28;20064;-73
2022/04/13 07:16:15;;;;;;;11.60;7.10;;;17.90;82.00;;;;;;5035595;28;20134;-73
2022/04/13 07:18:41;;;;;;;13.63;8.32;;;17.20;83.10;;;;;;5031308;28;20538;-73
2022/04/13 07:21:06;;;;;;;13.00;7.88;;;16.70;84.30;;;;;;5021068;28;20038;-73
2022/04/13 07:23:32;;;;;;;52.03;9.73;;;17.10;84.50;;;;;;5028937;28;20063;-74
2022/04/13 07:25:57;;;;;;;24.63;8.27;;;17.40;83.40;;;;;;5037957;28;20139;-73
2022/04/13 07:28:23;;;;;;;12.82;6.68;;;17.70;82.60;;;;;;5033344;28;20041;-73
2022/04/13 07:30:50;;;;;;;11.45;6.88;;;16.00;84.50;;;;;;5034274;28;20102;-73
2022/04/13 07:33:15;;;;;;;13.20;7.10;;;14.20;88.60;;;;;;5032176;28;20044;-73
2022/04/13 07:35:41;;;;;;;17.38;7.63;;;13.00;90.60;;;;;;5032044;28;20098;-73
2022/04/13 07:38:06;;;;;;;26.05;7.82;;;12.50;92.70;;;;;;5033778;28;20057;-73
2022/04/13 07:40:32;;;;;;;15.05;7.85;;;12.20;92.90;;;;;;5020479;28;20025;-73
2022/04/13 07:42:58;;;;;;;14.10;7.78;;;12.10;93.60;;;;;;5022635;28;20386;-73
2022/04/13 07:45:23;;;;;;;15.10;7.68;;;12.10;93.70;;;;;;5024917;28;20822;-73
2022/04/13 07:47:49;;;;;;;16.10;9.05;;;12.00;93.50;;;;;;5030385;28;20087;-73
2022/04/13 07:50:15;;;;;;;10.63;7.25;;;12.10;93.50;;;;;;5029476;28;20025;-73
2022/04/13 07:52:41;;;;;;;16.15;8.35;;;12.10;93.80;;;;;;5043055;28;20052;-73
2022/04/13 07:55:09;;;;;;;12.88;8.00;;;12.30;93.40;;;;;;5040021;28;20036;-74
2022/04/13 07:57:37;;;;;;;13.65;7.55;;;12.30;93.70;;;;;;5040069;28;20379;-74
2022/04/13 08:00:04;;;;;;;13.32;7.53;;;12.40;93.70;;;;;;5041918;28;20072;-73
2022/04/13 08:02:33;;;;;;;14.48;8.15;;;12.50;93.10;;;;;;5042523;28;20468;-73
2022/04/13 08:04:59;;;;;;;13.80;8.82;;;12.60;93.70;;;;;;5040772;28;20056;-73
2022/04/13 08:07:25;;;;;;;18.58;8.15;;;12.60;92.90;;;;;;5036268;28;20034;-74
2022/04/13 08:09:51;;;;;;;17.50;8.45;;;12.60;93.40;;;;;;5037881;28;20053;-73
2022/04/13 08:12:17;;;;;;;14.95;8.23;;;12.70;93.20;;;;;;5039444;28;20037;-74
2022/04/13 08:14:47;;;;;;;13.63;7.70;;;12.80;93.10;;;;;;5044856;28;20041;-73
2022/04/13 08:17:13;;;;;;;19.13;8.48;;;12.90;93.10;;;;;;5044161;28;20047;-74
2022/04/13 08:19:39;;;;;;;18.92;7.53;;;12.90;93.00;;;;;;5045858;28;20058;-73
2022/04/13 08:22:04;;;;;;;17.52;8.82;;;12.70;92.60;;;;;;5043714;28;20047;-73
2022/04/13 08:24:30;;;;;;;15.32;8.07;;;12.90;92.70;;;;;;5046581;28;20037;-73
2022/04/13 08:26:58;;;;;;;17.65;9.73;;;13.10;93.20;;;;;;5045226;28;20033;-73
2022/04/13 08:29:25;;;;;;;13.85;7.30;;;13.20;92.50;;;;;;5036889;28;20558;-73
2022/04/13 08:31:50;;;;;;;24.25;9.32;;;13.10;92.40;;;;;;5025755;28;20518;-74
2022/04/13 08:34:16;;;;;;;20.30;8.70;;;13.40;92.90;;;;;;5030033;28;20115;-73
2022/04/13 08:36:42;;;;;;;12.80;8.98;;;13.40;92.10;;;;;;5025621;28;20048;-73
2022/04/13 08:39:14;;;;;;;13.80;8.98;;;13.50;92.30;;;;;;5024803;28;20032;-73
2022/04/13 08:41:49;;;;;;;17.55;9.48;;;13.60;91.20;;;;;;5021893;28;20386;-74
2022/04/13 08:44:37;;;;;;;15.20;8.85;;;13.70;91.40;;;;;;5027554;28;20060;-74
2022/04/13 08:47:10;;;;;;;20.13;8.57;;;14.10;90.80;;;;;;5026196;28;20079;-74
2022/04/13 08:49:39;;;;;;;16.15;8.00;;;16.30;87.50;;;;;;5032191;28;20581;-73
2022/04/13 08:52:07;;;;;;;16.10;8.25;;;18.10;84.20;;;;;;5017615;28;20052;-74
2022/04/13 08:54:45;;;;;;;20.67;8.50;;;18.40;83.50;;;;;;5028530;28;20025;-74
2022/04/13 08:57:14;;;;;;;15.93;7.72;;;18.90;81.90;;;;;;5034077;28;20617;-74
2022/04/13 08:59:48;;;;;;;14.07;8.13;;;19.40;81.40;;;;;;5045765;28;20029;-74
2022/04/13 09:02:44;;;;;;;14.48;8.57;;;19.00;80.40;;;;;;5045645;28;20032;-74
2022/04/13 09:05:14;;;;;;;14.32;7.93;;;18.30;81.10;;;;;;5031579;28;20140;-74
2022/04/13 09:07:42;;;;;;;13.77;8.40;;;19.20;79.50;;;;;;5032833;28;20048;-74
2022/04/13 09:10:12;;;;;;;16.17;9.23;;;19.00;78.90;;;;;;5041395;28;20036;-74
2022/04/13 09:12:38;;;;;;;16.42;8.32;;;19.70;80.20;;;;;;5042529;28;20033;-74
2022/04/13 09:15:06;;;;;;;15.65;9.20;;;19.20;78.60;;;;;;5033682;28;20033;-74
2022/04/13 09:17:31;;;;;;;13.25;8.00;;;19.20;79.50;;;;;;5038717;28;20040;-74
2022/04/13 09:19:58;;;;;;;15.68;8.57;;;19.10;80.70;;;;;;5037926;28;20456;-74
2022/04/13 09:22:25;;;;;;;17.30;9.05;;;19.10;80.20;;;;;;5044235;28;20136;-74
2022/04/13 09:24:52;;;;;;;16.23;9.38;;;18.80;79.50;;;;;;5044027;28;20032;-74
2022/04/13 09:27:21;;;;;;;14.48;8.77;;;17.50;80.20;;;;;;5025277;28;20034;-74
2022/04/13 09:29:47;;;;;;;14.88;9.25;;;16.70;82.40;;;;;;5019260;28;20109;-74
2022/04/13 09:32:14;;;;;;;13.10;7.70;;;16.50;83.50;;;;;;5023317;28;20044;-74
2022/04/13 09:34:40;;;;;;;14.18;8.23;;;15.90;84.60;;;;;;5024698;28;20498;-74
2022/04/13 09:37:06;;;;;;;16.80;9.18;;;15.90;86.60;;;;;;5025680;28;20142;-74
2022/04/13 09:39:33;;;;;;;17.00;9.00;;;15.70;85.10;;;;;;5025986;28;20025;-74
2022/04/13 09:42:03;;;;;;;14.10;8.77;;;15.80;85.20;;;;;;5024347;28;20043;-74
2022/04/13 09:44:30;;;;;;;19.48;9.48;;;15.80;84.50;;;;;;5026633;28;20045;-74
2022/04/13 09:47:09;;;;;;;11.77;8.68;;;15.90;84.50;;;;;;5035209;28;20025;-74
2022/04/13 09:49:35;;;;;;;19.10;8.50;;;16.00;84.30;;;;;;5044294;28;20518;-74
2022/04/13 09:52:00;;;;;;;23.60;8.70;;;15.90;84.40;;;;;;5044126;28;20033;-74
2022/04/13 09:54:27;;;;;;;17.75;9.65;;;15.90;84.70;;;;;;5043262;28;20052;-74
2022/04/13 09:56:53;;;;;;;13.23;8.43;;;15.80;85.00;;;;;;5042841;28;20383;-74
2022/04/13 09:59:30;;;;;;;16.80;8.23;;;16.00;86.00;;;;;;5028765;28;20071;-74
2022/04/13 10:01:57;;;;;;;19.65;9.25;;;16.20;84.00;;;;;;5036425;28;20028;-74
2022/04/13 10:04:27;;;;;;;15.73;7.72;;;16.30;84.10;;;;;;5038669;28;20045;-74
2022/04/13 10:06:53;;;;;;;15.43;8.80;;;16.20;83.70;;;;;;5044031;28;20033;-74
2022/04/13 10:09:19;;;;;;;13.25;7.95;;;16.30;83.90;;;;;;5044218;28;20036;-74
2022/04/13 10:11:59;;;;;;;16.33;8.43;;;16.40;82.80;;;;;;5035822;28;20650;-74
2022/04/13 10:14:24;;;;;;;16.00;8.52;;;16.40;83.90;;;;;;5038693;28;20036;-74
2022/04/13 10:16:52;;;;;;;16.33;9.20;;;16.70;84.60;;;;;;5034749;28;20033;-74
2022/04/13 10:19:20;;;;;;;13.25;8.85;;;16.70;84.30;;;;;;5042794;28;20555;-74
2022/04/13 10:21:51;;;;;;;17.45;10.68;;;16.70;83.50;;;;;;5041871;28;20037;-74
2022/04/13 10:24:27;;;;;;;13.60;8.48;;;16.70;84.70;;;;;;5042091;28;20397;-74
2022/04/13 10:27:10;;;;;;;17.27;7.95;;;16.80;83.80;;;;;;5040902;28;20028;-74
2022/04/13 10:29:41;;;;;;;13.50;7.75;;;16.70;84.00;;;;;;5039767;28;20032;-74
2022/04/13 10:32:18;;;;;;;12.50;8.27;;;16.80;82.70;;;;;;5046281;28;20052;-74
2022/04/13 10:34:48;;;;;;;17.95;9.18;;;16.90;84.10;;;;;;5044239;28;20036;-74
2022/04/13 10:37:19;;;;;;;14.10;8.90;;;17.10;83.70;;;;;;5046711;28;20029;-74
2022/04/13 10:39:46;;;;;;;16.08;8.75;;;16.90;82.20;;;;;;5046773;28;20063;-74
2022/04/13 10:42:14;;;;;;;11.82;8.07;;;16.90;82.30;;;;;;5044106;28;20491;-74
2022/04/13 10:44:51;;;;;;;17.13;8.48;;;17.10;83.00;;;;;;5043531;28;20029;-74
2022/04/13 10:47:30;;;;;;;23.25;9.68;;;17.10;83.10;;;;;;5038410;28;20041;-74
2022/04/13 10:50:00;;;;;;;13.18;8.38;;;17.10;83.90;;;;;;5035747;28;20590;-74
2022/04/13 10:52:59;;;;;;;22.98;7.95;;;17.30;83.50;;;;;;5045196;28;20044;-74
2022/04/13 10:55:27;;;;;;;16.88;8.73;;;17.60;82.80;;;;;;5045939;28;20028;-74
2022/04/13 10:57:57;;;;;;;16.65;7.93;;;17.90;82.20;;;;;;5045888;28;20119;-74
2022/04/13 11:00:24;;;;;;;15.60;8.50;;;17.80;83.20;;;;;;5042573;28;20025;-74
2022/04/13 11:02:55;;;;;;;14.75;8.77;;;18.00;82.30;;;;;;5038764;28;20031;-74
2022/04/13 11:05:25;;;;;;;13.98;8.07;;;18.30;81.70;;;;;;5042099;28;20044;-74
2022/04/13 11:08:14;;;;;;;13.75;8.90;;;18.20;81.60;;;;;;5045960;28;20033;-74
2022/04/13 11:10:42;;;;;;;17.25;9.38;;;18.30;79.20;;;;;;5041577;28;20064;-74
2022/04/13 11:13:08;;;;;;;16.30;8.75;;;18.50;79.30;;;;;;5046316;28;20033;-74
2022/04/13 11:15:47;;;;;;;16.35;8.48;;;18.80;79.20;;;;;;5043673;28;20588;-74
2022/04/13 11:18:18;;;;;;;15.68;8.05;;;18.70;80.00;;;;;;5045819;28;20040;-74
2022/04/13 11:21:07;;;;;;;15.55;9.25;;;19.10;79.00;;;;;;5042879;28;20067;-74
2022/04/13 11:23:54;;;;;;;18.95;8.65;;;19.10;77.40;;;;;;5046116;28;20033;-74
2022/04/13 11:26:35;;;;;;;17.08;8.52;;;19.10;77.70;;;;;;5044517;28;20108;-74
2022/04/13 11:29:09;;;;;;;16.95;8.88;;;19.20;77.90;;;;;;5045515;28;20383;-74
2022/04/13 11:32:00;;;;;;;22.85;7.93;;;19.30;77.50;;;;;;5046435;28;20109;-74
2022/04/13 11:34:45;;;;;;;13.82;7.75;;;19.40;78.40;;;;;;5046011;28;20663;-75
2022/04/13 11:37:21;;;;;;;14.52;8.55;;;19.50;77.80;;;;;;5034793;28;20073;-74
2022/04/13 11:39:51;;;;;;;15.23;7.97;;;19.40;77.30;;;;;;5045785;28;20043;-74
2022/04/13 11:42:40;;;;;;;19.00;9.18;;;19.60;77.20;;;;;;5045678;28;20037;-75
2022/04/13 11:45:08;;;;;;;15.93;7.15;;;19.50;77.10;;;;;;5045984;28;20037;-74
2022/04/13 11:47:49;;;;;;;21.13;9.27;;;19.80;79.40;;;;;;5042805;28;20067;-75
2022/04/13 11:50:14;;;;;;;14.98;8.13;;;20.00;77.40;;;;;;5049556;28;20036;-74
2022/04/13 11:52:48;;;;;;;14.77;7.45;;;20.20;78.90;;;;;;5049443;28;20040;-75
2022/04/13 11:55:16;;;;;;;16.60;7.75;;;20.40;78.10;;;;;;5043452;28;20033;-75
2022/04/13 11:58:04;;;;;;;13.30;7.30;;;20.60;77.70;;;;;;5047304;28;20102;-75
2022/04/13 12:00:57;;;;;;;15.02;7.75;;;20.90;77.00;;;;;;5045712;28;21397;-75
2022/04/13 12:03:35;;;;;;;16.50;7.90;;;20.60;75.80;;;;;;5042669;28;20025;-74
2022/04/13 12:06:07;;;;;;;10.98;7.50;;;20.70;75.20;;;;;;5048820;28;20055;-74
2022/04/13 12:08:41;;;;;;;14.98;7.82;;;20.80;76.10;;;;;;5048909;28;20033;-75
2022/04/13 12:11:11;;;;;;;14.13;7.10;;;21.00;75.90;;;;;;5044233;28;20219;-74
2022/04/13 12:13:53;;;;;;;13.95;7.82;;;20.90;76.10;;;;;;5044835;28;20532;-75
2022/04/13 12:16:20;;;;;;;11.13;7.90;;;20.90;77.00;;;;;;5043775;28;20117;-76
2022/04/13 12:18:47;;;;;;;15.25;7.72;;;20.80;75.10;;;;;;5038999;28;20034;-74
2022/04/13 12:21:18;;;;;;;13.63;6.93;;;20.90;76.30;;;;;;5037485;28;20545;-74
2022/04/13 12:23:44;;;;;;;12.63;7.03;;;21.00;75.20;;;;;;5023187;28;20618;-74
2022/04/13 12:26:10;;;;;;;12.75;6.95;;;21.10;74.90;;;;;;5022043;28;20021;-74
2022/04/13 12:28:37;;;;;;;16.58;7.35;;;21.30;75.90;;;;;;5026594;28;20060;-74
2022/04/13 12:31:11;;;;;;;13.75;7.47;;;21.30;74.00;;;;;;5043347;28;20033;-74
2022/04/13 12:33:38;;;;;;;12.43;7.88;;;21.40;75.10;;;;;;5044291;28;20112;-74
2022/04/13 12:36:05;;;;;;;13.75;7.53;;;21.40;75.60;;;;;;5044551;28;20149;-74
2022/04/13 12:38:35;;;;;;;16.33;8.18;;;21.30;74.60;;;;;;5040398;28;20037;-74
2022/04/13 12:41:01;;;;;;;14.75;7.43;;;21.20;75.20;;;;;;5044186;28;20544;-73
2022/04/13 12:43:28;;;;;;;16.05;8.02;;;21.30;75.30;;;;;;5043892;28;20157;-74